Date,TemperatureHighF,TemperatureAvgF,TemperatureLowF,DewpointHighF,DewpointAvgF,DewpointLowF,HumidityHigh,HumidityAvg,HumidityLow,PressureMaxIn,PressureMinIn,WindSpeedMaxMPH,WindSpeedAvgMPH,GustSpeedMaxMPH,PrecipitationSumIn
2013-1-1,42.0,35.1,32.0,37.0,34.1,31.1,100,96,69,29.73,29.33,32,6,33,0.84
2013-1-2,38.0,36.1,34.0,35.2,33.9,32.6,100,92,81,29.62,29.41,25,8,31,0.02
2013-1-4,36.0,33.0,27.0,34.2,30.4,24.9,99,90,83,29.96,29.88,11,2,19,0.00
2013-1-5,39.0,35.0,31.0,36.4,33.6,29.7,100,95,83,29.88,29.43,11,2,17,0.00
2013-1-6,39.0,35.9,32.0,36.0,31.2,24.3,100,83,64,29.50,29.17,13,3,25,0.00
2013-1-7,38.0,34.6,33.0,34.7,31.0,27.6,97,87,66,29.36,29.18,14,3,22,0.00
2013-1-8,24.0,18.4,14.0,23.0,18.0,14.0,100,98,90,30.14,29.88,0,0,3,0.00
2013-1-9,20.0,14.2,8.0,20.0,14.2,8.0,100,100,100,30.22,30.08,0,0,4,0.00
2013-1-10,21.0,16.6,10.0,21.0,16.6,10.0,100,100,100,30.28,30.09,1,0,3,0.00
2013-1-11,30.0,21.7,14.0,30.0,21.7,14.0,100,100,95,30.26,30.08,6,0,11,0.00
2013-1-12,44.0,35.0,18.0,37.9,31.3,18.0,100,87,69,30.26,29.99,25,4,28,0.10
2013-1-13,46.0,42.2,38.0,40.2,37.5,34.7,100,84,66,30.00,29.77,20,7,32,0.62
2013-1-14,47.0,41.4,36.0,40.3,36.2,25.7,100,82,60,30.04,29.59,22,4,33,0.10
2013-1-15,36.0,25.8,19.0,25.0,21.3,17.8,100,84,60,30.35,30.03,6,0,13,0.00
2013-1-16,24.0,21.5,19.0,23.0,21.4,19.0,100,100,93,30.32,29.80,6,0,9,0.00
2013-1-17,19.0,16.4,14.0,19.0,16.4,14.0,100,100,100,30.08,29.72,0,0,0,0.00
2013-1-18,14.0,3.9,-3.0,14.0,3.9,-3.0,100,100,100,30.36,30.08,0,0,0,0.00
2013-1-19,20.0,14.7,6.0,20.0,14.7,6.0,100,100,100,30.36,30.07,2,0,5,0.00
2013-1-20,26.0,20.6,11.0,26.0,20.6,11.0,100,100,97,30.11,29.98,2,0,6,0.00
2013-1-21,22.0,11.0,7.0,22.0,11.0,7.0,100,100,100,30.04,29.84,0,0,3,0.00
2013-1-22,25.0,22.2,18.0,25.0,22.2,18.0,100,100,100,29.86,29.57,0,0,3,0.00
2013-1-23,31.0,24.1,15.0,31.0,24.1,15.0,100,100,100,29.57,29.44,4,0,7,0.00
2013-1-24,29.0,20.9,13.0,29.0,20.9,13.0,100,100,100,29.63,29.51,2,0,6,0.00
2013-1-25,28.0,27.6,27.0,28.0,27.6,27.0,100,100,100,29.52,29.50,0,0,0,0.00
2013-1-26,-14.0,-17.6,-21.0,-14.0,-17.6,-21.0,100,100,100,30.02,29.96,0,0,1,0.00
2013-1-27,-8.0,-15.7,-22.0,-8.0,-15.7,-22.0,100,100,100,30.28,30.02,3,0,11,0.00
2013-1-28,4.0,-7.4,-17.0,4.0,-7.4,-17.0,100,100,100,30.32,30.01,10,0,12,0.00
2013-1-29,11.0,6.5,3.0,11.0,6.5,3.0,100,100,96,30.01,29.90,1,0,10,0.00
2013-1-30,43.0,21.2,11.0,35.3,20.2,11.0,100,96,64,30.02,29.73,18,1,27,0.43
2013-1-31,32.0,27.5,24.0,32.0,27.5,24.0,100,100,100,30.08,29.83,4,0,7,0.00
2013-2-1,27.0,26.0,26.0,27.0,26.0,26.0,100,100,100,30.11,30.08,0,0,0,0.00
2013-2-2,39.0,37.0,33.0,36.9,35.8,33.0,100,95,91,29.59,29.50,12,4,16,0.13
2013-2-3,39.0,33.2,27.0,37.4,32.3,27.0,100,97,89,29.61,29.37,10,1,16,0.04
2013-2-4,41.0,38.1,27.0,33.5,31.2,27.0,100,77,67,29.76,29.61,17,3,23,0.00
2013-2-5,37.0,24.5,14.0,30.1,22.1,14.0,100,91,75,29.74,29.62,4,0,12,0.00
2013-2-6,26.0,21.7,14.0,26.0,21.7,14.0,100,100,100,29.76,29.61,0,0,0,0.00
2013-2-7,37.0,26.7,18.0,31.6,24.9,18.0,100,94,71,29.75,29.41,19,1,25,0.01
2013-2-8,32.0,25.4,22.0,28.3,23.9,19.9,100,94,82,29.89,29.50,4,0,7,0.00
2013-2-9,42.0,39.0,27.0,36.3,32.7,25.8,96,78,70,29.86,29.15,29,5,33,0.04
2013-2-10,40.0,37.4,31.0,35.9,33.8,31.0,100,87,78,29.61,29.11,18,4,28,0.00
2013-2-11,31.0,30.4,30.0,31.0,30.4,30.0,100,100,100,29.67,29.61,0,0,8,0.00
2013-2-12,33.0,26.8,23.0,30.1,25.5,23.0,100,95,83,29.88,29.84,9,1,15,0.00
2013-2-13,39.0,28.9,18.0,31.1,25.2,18.0,100,87,66,29.96,29.78,16,2,22,0.09
2013-2-14,39.0,35.5,29.0,35.5,30.7,27.1,100,83,64,29.79,29.32,19,3,27,0.05
2013-2-15,31.0,27.6,23.0,31.0,27.6,22.0,100,100,96,30.04,29.62,9,0,12,0.01
2013-2-16,28.0,21.4,19.0,23.0,20.5,18.4,100,97,77,30.16,29.92,8,0,10,0.02
2013-2-17,25.0,21.7,18.0,25.0,21.4,18.0,100,99,91,29.92,29.70,10,0,11,0.00
2013-2-18,21.0,13.3,2.0,18.8,12.4,2.0,100,96,75,30.03,29.88,9,0,15,0.00
2013-2-19,13.0,5.0,-3.0,13.0,5.0,-3.0,100,100,100,30.00,29.45,0,0,0,0.00
2013-2-20,27.0,16.5,10.0,22.3,15.5,10.0,100,96,72,29.45,29.20,0,0,4,0.00
2013-2-21,31.0,19.1,8.0,23.5,17.5,8.0,100,94,70,29.40,29.23,5,0,9,0.05
2013-2-22,20.0,19.2,19.0,20.0,19.2,19.0,100,100,100,29.38,29.33,0,0,0,0.00
2013-2-23,25.0,22.4,21.0,22.5,21.9,21.0,100,98,88,29.47,29.29,0,0,5,0.01
2013-2-24,37.0,26.9,17.0,32.2,24.2,17.0,100,90,68,29.75,29.47,14,1,17,0.04
2013-2-25,43.0,30.7,17.0,30.7,24.3,17.0,100,78,60,29.79,29.70,10,2,17,0.15
2013-2-26,44.0,32.3,23.0,30.5,26.9,22.0,100,82,55,29.70,29.44,7,1,11,0.12
2013-2-27,39.0,29.9,23.0,35.2,26.6,19.9,99,87,74,29.44,29.33,16,2,25,0.08
2013-2-28,30.0,24.1,21.0,26.0,23.4,21.0,100,97,83,29.51,29.42,2,0,6,0.01
2013-3-1,33.0,25.5,18.0,32.2,25.1,18.0,100,98,86,30.04,29.51,4,0,9,0.00
2013-3-2,31.0,20.7,14.0,28.1,20.0,14.0,100,97,80,30.22,30.04,6,0,9,0.00
2013-3-3,37.0,21.5,9.0,25.0,18.2,9.0,100,88,57,30.56,30.22,3,0,6,0.00
2013-3-4,42.0,26.9,17.0,26.5,21.9,17.0,100,84,49,30.59,30.41,1,0,5,0.00
2013-3-5,38.0,26.3,17.0,26.0,22.7,17.0,100,88,57,30.41,30.10,7,0,10,0.00
2013-3-6,38.0,25.4,16.0,27.2,22.1,16.0,100,89,61,30.10,29.96,7,0,12,0.00
2013-3-7,45.0,37.9,23.0,31.7,27.6,21.2,99,67,40,29.97,29.61,24,5,36,0.17
2013-3-10,33.0,29.5,24.0,31.5,29.0,24.0,100,98,92,30.32,30.24,3,0,4,0.00
2013-3-11,39.0,28.5,20.0,29.3,26.7,20.0,100,94,54,30.42,30.32,3,0,8,0.00
2013-3-12,40.0,26.7,13.0,20.0,10.0,2.1,100,56,24,30.33,30.08,14,1,19,0.00
2013-3-13,35.0,21.6,6.0,11.6,6.3,1.8,100,56,26,30.09,29.90,6,0,10,0.00
2013-3-14,39.0,21.7,10.0,25.3,14.0,5.0,100,74,46,29.98,29.88,13,0,17,0.00
2013-3-15,34.0,18.7,4.0,17.6,11.6,4.0,100,78,46,29.97,29.83,3,0,6,0.00
2013-3-16,33.0,15.6,1.0,17.1,9.8,1.0,100,81,45,30.21,29.94,2,0,5,0.00
2013-3-17,30.0,18.0,2.0,16.9,11.5,2.0,100,79,47,30.28,30.16,3,0,8,0.00
2013-3-18,30.0,17.2,3.0,14.5,10.3,3.0,100,78,44,30.17,29.98,4,0,6,0.00
2013-3-19,28.0,19.9,15.0,5.5,3.6,0.3,62,50,34,29.95,29.93,8,1,21,0.00
2013-3-20,26.0,17.6,6.0,11.3,4.1,0.3,82,57,35,30.10,29.94,15,2,26,0.00
2013-3-21,30.0,15.5,-1.0,10.8,5.6,-1.0,100,69,37,30.34,30.09,11,1,16,0.00
2013-3-22,35.0,29.4,22.0,30.7,22.7,11.3,98,76,61,30.26,29.90,18,3,29,0.00
2013-3-23,33.0,28.8,24.0,31.5,28.1,24.0,100,97,86,29.98,29.88,13,0,17,0.14
2013-3-24,25.0,21.7,17.0,25.0,21.1,17.0,100,97,86,29.98,29.68,0,0,0,0.00
2013-3-25,23.0,17.7,7.0,23.0,17.7,7.0,100,100,98,29.82,29.53,0,0,5,0.00
2013-3-26,22.0,9.5,-2.0,12.4,6.2,-2.0,100,88,58,30.31,29.82,6,0,10,0.07
2013-3-27,24.0,8.6,-9.0,11.5,3.7,-9.0,100,83,49,30.41,30.31,5,0,10,0.02
2013-3-28,36.0,22.9,10.0,27.5,17.8,10.0,100,82,58,30.34,30.06,19,3,27,0.00
2013-3-29,40.0,35.6,25.0,34.9,31.4,24.5,100,85,70,30.07,29.98,19,4,22,0.05
2013-3-30,46.0,34.5,24.0,34.5,30.3,24.0,100,86,58,30.35,30.07,3,0,6,0.00
2013-3-31,45.0,35.7,28.0,34.7,31.3,28.0,100,85,62,30.36,30.21,6,0,8,0.00
2013-4-1,42.0,32.8,22.0,31.1,26.6,22.0,100,80,54,30.21,30.04,5,0,8,0.00
2013-4-2,46.0,33.9,21.0,27.5,24.0,20.0,98,70,38,30.28,30.12,9,1,15,0.00
2013-4-3,33.0,30.7,30.0,25.9,24.5,23.4,80,78,75,30.30,30.27,4,0,10,0.00
2013-4-5,39.0,31.8,27.0,18.5,15.9,13.4,70,53,38,29.63,29.59,4,0,7,0.00
2013-4-6,28.0,24.3,20.0,27.5,21.9,15.1,100,91,63,29.63,29.56,5,0,9,0.01
2013-4-7,24.0,21.3,10.0,24.0,20.8,10.0,100,98,88,29.91,29.63,11,0,16,0.00
2013-4-8,20.0,12.5,3.0,19.0,12.0,3.0,100,98,87,29.91,29.43,0,0,0,0.00
2013-4-9,28.0,19.7,13.0,18.3,14.7,11.7,100,83,52,29.56,29.22,7,0,10,0.13
2013-4-10,25.0,16.9,8.0,18.0,11.2,6.6,100,80,49,30.09,29.56,7,0,11,0.01
2013-4-11,29.0,16.0,6.0,12.1,9.6,6.0,100,79,42,30.21,30.09,12,1,13,0.04
2013-4-12,27.0,11.1,-8.0,11.0,4.2,-8.0,100,77,45,30.24,30.16,10,1,16,0.00
2013-4-13,34.0,19.0,-3.0,12.7,7.9,-3.0,100,67,35,30.52,30.22,8,1,10,0.01
2013-4-14,39.0,23.0,4.0,16.0,11.9,4.0,100,68,34,30.64,30.52,9,1,12,0.04
2013-4-15,44.0,28.9,13.0,18.1,14.1,11.3,94,58,29,30.56,30.39,6,0,9,0.06
2013-4-16,39.0,25.9,7.0,19.1,14.9,7.0,100,67,39,30.40,30.18,7,0,10,0.00
2013-4-17,38.0,24.2,11.0,19.0,14.9,10.8,100,71,42,30.27,30.19,10,1,14,0.00
2013-4-18,43.0,26.4,7.0,21.4,17.1,7.0,100,72,37,30.32,30.20,10,1,13,0.00
2013-4-19,46.0,30.7,12.0,23.4,18.9,12.0,100,66,36,30.43,30.25,10,1,15,0.00
2013-4-20,50.0,35.1,18.0,26.5,21.3,17.4,100,61,31,30.52,30.43,10,1,18,0.00
2013-4-21,47.0,36.5,27.0,31.1,24.4,19.4,87,63,40,30.52,30.44,14,2,19,0.00
2013-4-22,34.0,29.9,25.0,31.6,28.4,23.6,100,94,80,30.60,30.51,6,0,8,0.00
2013-4-27,39.0,36.0,33.0,14.9,13.9,11.8,43,40,35,29.98,29.92,15,4,22,0.00
2013-4-28,46.0,36.8,25.0,16.8,11.6,5.9,61,36,22,30.23,29.98,12,1,19,0.00
2013-4-29,47.0,34.6,18.0,26.1,20.1,15.8,100,60,32,30.32,30.21,6,0,10,0.00
2013-4-30,45.0,37.8,26.0,34.9,26.7,23.3,100,66,50,30.22,29.94,13,2,18,0.00
2013-5-1,53.0,39.4,24.0,31.0,27.5,23.0,100,66,38,29.94,29.62,8,0,19,0.00
2013-5-2,46.0,39.0,34.0,40.0,34.1,27.2,100,83,66,29.97,29.73,16,1,20,0.02
2013-5-3,49.0,42.6,36.0,40.1,36.0,31.8,100,79,57,30.04,29.88,25,2,30,0.04
2013-5-4,37.0,34.3,32.0,37.0,34.3,32.0,100,100,100,30.05,29.85,4,0,9,0.71
2013-5-5,51.0,40.3,31.0,38.9,33.6,28.3,100,79,43,30.24,30.05,11,0,13,0.00
2013-5-6,53.0,42.4,30.0,34.7,30.5,27.4,100,66,42,30.36,30.24,9,1,11,0.00
2013-5-7,51.0,42.1,30.0,35.4,32.0,28.4,100,70,49,30.41,30.33,8,1,12,0.00
2013-5-8,58.0,45.8,30.0,37.2,33.5,29.8,100,65,39,30.39,30.31,12,1,16,0.00
2013-5-9,56.0,44.3,28.0,37.9,33.5,28.0,100,68,46,30.41,30.32,6,0,10,0.00
2013-5-10,64.0,49.8,30.0,40.5,34.5,30.0,100,62,29,30.34,30.05,14,2,22,0.00
2013-5-11,66.0,52.0,38.0,42.3,38.9,33.9,88,62,40,30.06,29.68,11,1,18,0.00
2013-5-12,54.0,46.4,40.0,50.0,44.7,39.5,100,94,77,29.69,29.59,6,0,9,0.30
2013-5-13,53.0,44.4,39.0,45.0,41.7,38.5,100,91,66,29.60,29.52,11,1,18,0.24
2013-5-14,41.0,35.5,28.0,39.0,30.9,23.2,100,85,59,29.77,29.58,7,0,12,0.10
2013-5-15,52.0,41.5,32.0,38.1,33.2,29.2,100,75,48,29.88,29.77,15,3,24,0.00
2013-5-16,48.0,43.2,40.0,37.3,34.3,29.4,81,71,63,29.88,29.57,20,4,24,0.00
2013-5-17,43.0,36.9,31.0,39.0,35.7,31.0,100,96,74,29.65,29.51,19,1,23,0.43
2013-5-18,39.0,32.5,27.0,35.0,30.8,27.0,100,94,74,30.28,29.65,6,0,11,0.40
2013-5-19,51.0,39.5,23.0,31.0,25.8,19.7,100,62,37,30.72,30.28,7,1,12,0.00
2013-5-20,57.0,43.9,28.0,31.8,28.6,25.3,100,60,33,30.78,30.62,11,1,14,0.00
2013-5-21,60.0,45.9,26.0,39.1,30.5,25.0,100,59,33,30.68,30.37,7,1,10,0.00
2013-5-22,62.0,48.4,31.0,42.5,35.6,30.8,100,65,35,30.39,30.18,6,1,12,0.00
2013-5-23,63.0,51.3,41.0,46.1,43.3,40.5,100,76,53,30.28,30.19,5,0,10,0.01
2013-5-24,70.0,56.8,41.0,47.2,42.0,37.6,92,61,38,30.21,30.04,12,1,20,0.00
2013-5-25,72.0,57.3,35.0,44.6,36.4,29.2,98,50,27,30.13,29.97,18,2,25,0.00
2013-5-26,68.0,52.8,35.0,45.6,40.1,33.0,99,65,36,30.07,29.95,14,1,24,0.00
2013-5-27,77.0,62.1,42.0,49.8,44.8,40.5,100,57,32,30.02,29.83,15,2,17,0.00
2013-5-28,81.0,61.2,37.0,50.9,43.3,36.5,100,57,30,29.91,29.71,11,1,16,0.00
2013-5-29,84.0,66.6,45.0,50.7,43.0,37.2,78,45,27,29.86,29.72,13,1,16,0.00
2013-5-30,76.0,61.6,40.0,50.3,45.1,38.7,96,58,35,30.13,29.86,8,1,11,0.00
2013-5-31,68.0,56.2,39.0,52.4,47.4,39.0,100,75,54,30.29,30.13,7,1,12,0.00
2013-6-1,57.0,51.6,47.0,49.6,48.0,46.6,100,88,71,30.33,30.28,6,0,7,0.00
2013-6-2,53.0,48.0,45.0,50.7,46.5,41.8,100,95,76,30.38,30.22,6,0,11,0.28
2013-6-3,61.0,51.5,44.0,47.3,41.5,38.8,93,70,52,30.22,29.89,10,2,22,0.00
2013-6-4,62.0,52.9,44.0,44.7,40.8,36.8,89,65,47,29.96,29.80,21,4,27,0.00
2013-6-5,65.0,53.1,35.0,44.1,39.0,34.2,100,61,37,30.09,29.96,19,2,19,0.00
2013-6-6,73.0,57.8,37.0,44.7,40.0,34.2,96,54,34,30.09,29.78,11,1,16,0.00
2013-6-7,76.0,57.2,39.0,58.6,44.8,37.0,98,66,33,30.06,29.80,8,1,12,0.05
2013-6-8,77.0,60.8,42.0,51.4,47.4,42.0,100,66,39,30.22,30.04,8,0,12,0.00
2013-6-9,80.0,64.3,43.0,53.3,47.0,41.0,94,58,29,30.32,30.22,9,1,10,0.00
2013-6-10,78.0,63.6,44.0,53.2,47.6,40.8,96,59,37,30.38,30.20,10,1,11,0.00
2013-6-11,80.0,63.5,45.0,53.1,47.2,40.8,93,58,34,30.25,30.06,8,1,12,0.00
2013-6-12,80.0,65.0,49.0,51.2,44.4,39.4,78,50,30,30.14,30.02,16,2,21,0.00
2013-6-13,74.0,62.6,47.0,54.9,47.5,40.8,84,59,39,30.29,30.08,10,1,18,0.00
2013-6-14,77.0,62.1,42.0,54.0,48.9,42.0,100,66,43,30.38,30.29,8,1,11,0.00
2013-6-15,78.0,64.0,42.0,57.8,50.3,41.2,98,64,44,30.47,30.31,7,0,13,0.00
2013-6-16,87.0,68.1,50.0,59.5,51.0,44.1,88,57,36,30.38,30.19,9,1,12,0.00
2013-6-17,87.0,70.4,50.0,61.8,51.6,42.9,80,53,36,30.25,29.97,10,1,13,0.00
2013-6-18,78.0,66.9,54.0,51.5,47.9,44.8,81,52,34,30.02,29.88,21,4,29,0.00
2013-6-19,77.0,65.3,52.0,51.2,48.0,44.7,85,55,36,30.10,30.02,18,3,25,0.00
2013-6-20,78.0,62.8,44.0,56.7,49.0,41.8,98,64,35,30.15,30.03,8,0,19,0.00
2013-6-21,63.0,54.0,45.0,53.2,48.9,44.0,100,85,61,30.23,30.15,9,0,12,0.02
2013-6-22,72.0,62.1,42.0,53.4,45.8,41.7,100,58,38,30.20,29.90,10,1,23,0.00
2013-6-23,74.0,61.8,45.0,50.9,46.0,40.8,87,58,35,29.91,29.74,7,1,10,0.00
2013-6-24,80.0,65.1,51.0,56.1,48.7,41.4,76,57,41,29.82,29.69,6,1,11,0.00
2013-6-25,81.0,65.6,47.0,62.7,52.0,41.8,91,63,45,29.77,29.68,7,0,9,0.00
2013-6-26,83.0,66.4,50.0,57.5,50.6,43.1,83,59,38,29.98,29.73,20,2,29,0.00
2013-6-27,75.0,63.3,50.0,60.1,54.1,46.6,91,73,57,30.19,29.98,9,0,12,0.00
2013-6-28,61.0,55.9,51.0,57.7,54.4,49.3,100,95,74,30.32,30.19,0,0,5,0.03
2013-6-29,71.0,57.2,49.0,59.3,53.3,49.0,100,88,63,30.28,30.11,6,0,9,0.01
2013-6-30,65.0,57.5,53.0,57.6,53.4,48.3,97,86,72,30.20,29.96,8,1,11,0.00
2013-7-1,62.0,55.4,51.0,53.6,49.5,42.1,100,82,59,29.96,29.74,19,2,22,0.01
2013-7-2,66.0,57.0,49.0,54.4,47.6,41.5,88,71,55,30.03,29.74,12,1,23,0.00
2013-7-3,62.0,54.6,47.0,50.2,46.4,42.8,99,75,55,30.16,30.03,14,1,19,0.00
2013-7-4,58.0,54.5,51.0,51.5,47.7,43.3,95,78,66,30.20,30.13,14,1,20,0.00
2013-7-5,67.0,55.9,48.0,51.7,47.2,44.2,99,74,50,30.23,30.14,15,2,22,0.00
2013-7-6,65.0,57.5,52.0,48.9,46.0,43.0,86,66,54,30.18,29.90,15,3,27,0.00
2013-7-7,69.0,59.5,53.0,53.5,48.4,46.0,93,68,49,29.90,29.70,17,4,26,0.00
2013-7-8,63.0,52.8,49.0,55.9,50.1,48.3,100,92,64,29.98,29.81,5,0,8,0.24
2013-7-9,70.0,58.8,47.0,55.8,50.4,45.6,99,76,50,30.16,29.97,9,1,13,0.00
2013-7-10,75.0,60.7,48.0,60.2,53.1,46.9,100,78,48,30.19,30.05,7,0,12,0.00
2013-7-11,79.0,64.0,49.0,58.7,51.9,46.5,98,68,44,30.09,29.99,9,1,12,0.00
2013-7-12,83.0,64.1,50.0,59.4,50.2,44.4,85,63,42,30.10,29.98,9,1,15,0.00
2013-7-13,79.0,64.3,50.0,57.7,52.6,45.7,100,68,45,30.30,30.08,9,1,11,0.00
2013-7-14,73.0,62.6,49.0,59.1,54.1,47.2,95,75,58,30.43,30.30,10,1,11,0.02
2013-7-15,60.0,56.9,55.0,55.1,52.9,50.9,93,87,80,30.49,30.42,4,0,7,0.00
2013-7-22,83.0,75.6,58.0,56.1,53.1,47.9,71,46,38,30.20,30.11,7,1,15,0.00
2013-7-23,83.0,64.7,50.0,58.8,50.4,44.4,92,63,37,30.26,30.10,7,1,12,0.00
2013-7-24,84.0,67.8,50.0,59.7,51.5,43.3,84,58,40,30.18,30.00,8,1,12,0.00
2013-7-25,80.0,62.0,53.0,61.3,51.9,47.1,97,71,50,30.13,30.06,4,0,11,0.01
2013-7-27,77.0,68.9,60.0,63.7,59.8,55.1,85,73,60,30.43,30.39,4,0,8,0.00
2013-7-28,80.0,64.8,54.0,63.9,55.9,49.9,89,74,53,30.43,30.24,8,0,9,0.00
2013-7-29,80.0,65.8,49.0,64.8,55.7,46.3,95,71,56,30.33,30.22,6,1,9,0.00
2013-7-30,80.0,65.2,50.0,64.3,56.2,47.6,98,74,53,30.36,30.24,6,0,9,0.00
2013-7-31,78.0,64.3,50.0,63.4,56.0,47.8,93,76,59,30.36,30.20,7,1,11,0.00
2013-8-1,74.0,64.7,53.0,61.9,56.4,50.1,98,76,61,30.27,30.06,6,0,11,0.00
2013-8-2,75.0,62.5,46.0,55.3,50.8,46.0,100,68,45,30.15,29.91,13,2,25,0.03
2013-8-3,72.0,63.8,60.0,52.6,49.9,47.8,68,61,48,30.02,29.87,21,5,31,0.00
2013-8-4,68.0,61.6,56.0,53.4,50.6,48.4,86,68,56,30.09,30.02,15,2,22,0.00
2013-8-5,67.0,60.1,51.0,54.0,50.1,47.0,92,71,57,30.11,30.07,15,3,21,0.00
2013-8-6,68.0,62.2,57.0,51.7,50.1,48.2,75,65,52,30.09,30.04,23,4,25,0.00
2013-8-7,65.0,59.7,56.0,57.7,51.2,47.2,97,74,57,30.04,29.88,15,2,25,0.00
2013-8-8,71.0,60.0,54.0,58.6,51.4,46.5,86,74,58,29.96,29.85,11,2,20,0.00
2013-8-9,67.0,58.3,52.0,50.4,46.7,43.7,91,66,51,29.96,29.81,24,4,33,0.02
2013-8-10,66.0,56.3,49.0,61.0,52.9,47.5,100,89,68,30.13,29.88,15,1,22,0.45
2013-8-11,64.0,55.4,48.0,60.0,53.8,48.0,100,95,79,30.16,30.11,2,0,7,0.05
2013-8-12,70.0,59.6,52.0,61.9,56.2,50.1,100,90,68,30.18,30.12,5,0,8,0.01
2013-8-13,74.0,60.0,46.0,62.4,53.8,45.1,100,82,61,30.16,30.05,7,0,12,0.00
2013-8-14,63.0,55.7,50.0,56.4,53.6,50.0,100,93,73,30.16,30.03,5,0,8,0.00
2013-8-15,64.0,54.4,48.0,55.1,51.0,47.5,100,89,67,30.04,29.89,9,1,12,0.00
2013-8-16,66.0,53.5,41.0,56.4,49.3,41.0,100,87,58,29.92,29.78,4,0,7,0.00
2013-8-17,70.0,56.9,48.0,57.0,51.2,46.5,100,83,60,29.79,29.64,7,0,14,0.40
2013-8-18,60.0,52.3,47.0,58.6,50.9,47.0,100,96,75,29.78,29.63,9,1,17,0.56
2013-8-19,58.0,53.5,51.0,54.0,50.1,46.3,100,89,73,29.90,29.79,10,2,19,0.33
2013-8-20,59.0,52.8,49.0,56.6,52.0,49.0,100,97,79,29.99,29.89,6,0,17,0.03
2013-8-21,57.0,51.8,49.0,55.0,49.9,46.3,100,93,76,30.01,29.90,11,1,18,0.24
2013-8-22,55.0,50.3,48.0,54.2,49.9,48.0,100,99,90,29.91,29.83,8,1,15,0.42
2013-8-23,67.0,54.9,48.0,59.6,52.3,48.0,100,92,64,29.83,29.63,10,0,10,0.44
2013-8-24,66.0,52.3,45.0,56.9,50.3,45.0,100,94,68,29.83,29.69,6,0,8,0.01
2013-8-25,68.0,51.9,34.0,54.5,45.2,34.0,100,81,46,29.90,29.79,3,0,7,0.00
2013-8-26,69.0,53.3,36.0,52.8,45.5,36.0,100,78,48,29.92,29.83,5,0,8,0.00
2013-8-27,46.0,46.0,46.0,44.4,43.9,43.5,94,92,91,29.90,29.90,0,0,6,0.00
2013-8-29,60.0,54.9,48.0,55.7,51.7,47.9,100,89,75,30.02,29.73,7,1,10,0.02
2013-8-30,57.0,50.4,45.0,54.4,48.7,44.5,100,94,84,30.10,30.02,7,0,64,0.00
2013-8-31,48.0,46.0,44.0,47.5,45.8,44.0,100,99,96,30.08,30.04,4,0,9,0.00